sensor_id;sensor_type;location;lat;lon;timestamp;P1;durP1;ratioP1;P2;durP2;ratioP2
80576;SDS011;69937;52.420;10.538;2023-06-04T00:02:02;4.63;;;4.22;;
80576;SDS011;69937;52.420;10.538;2023-06-04T00:07:03;3.70;;;3.40;;
80576;SDS011;69937;52.420;10.538;2023-06-04T00:12:04;4.68;;;4.10;;
80576;SDS011;69937;52.420;10.538;2023-06-04T00:17:05;3.80;;;3.45;;
80576;SDS011;69937;52.420;10.538;2023-06-04T00:22:07;4.30;;;3.95;;
80576;SDS011;69937;52.420;10.538;2023-06-04T00:27:08;3.85;;;3.55;;
80576;SDS011;69937;52.420;10.538;2023-06-04T00:32:09;4.57;;;4.15;;
80576;SDS011;69937;52.420;10.538;2023-06-04T00:37:09;4.80;;;4.50;;
80576;SDS011;69937;52.420;10.538;2023-06-04T00:42:10;4.05;;;3.75;;
80576;SDS011;69937;52.420;10.538;2023-06-04T00:47:14;3.97;;;3.72;;
80576;SDS011;69937;52.420;10.538;2023-06-04T00:52:15;4.78;;;4.15;;
80576;SDS011;69937;52.420;10.538;2023-06-04T00:57:16;5.10;;;4.45;;
80576;SDS011;69937;52.420;10.538;2023-06-04T01:02:21;5.32;;;4.93;;
80576;SDS011;69937;52.420;10.538;2023-06-04T01:07:25;4.65;;;3.88;;
80576;SDS011;69937;52.420;10.538;2023-06-04T01:12:28;4.97;;;4.68;;
80576;SDS011;69937;52.420;10.538;2023-06-04T01:17:30;4.97;;;4.57;;
80576;SDS011;69937;52.420;10.538;2023-06-04T01:28:01;5.43;;;5.13;;
80576;SDS011;69937;52.420;10.538;2023-06-04T01:33:04;4.63;;;4.22;;
80576;SDS011;69937;52.420;10.538;2023-06-04T01:38:05;5.32;;;5.00;;
80576;SDS011;69937;52.420;10.538;2023-06-04T01:43:06;4.78;;;4.47;;
80576;SDS011;69937;52.420;10.538;2023-06-04T01:48:07;5.38;;;4.97;;
80576;SDS011;69937;52.420;10.538;2023-06-04T01:53:08;4.80;;;4.50;;
80576;SDS011;69937;52.420;10.538;2023-06-04T01:58:08;2.92;;;2.70;;
80576;SDS011;69937;52.420;10.538;2023-06-04T02:03:09;5.35;;;5.05;;
80576;SDS011;69937;52.420;10.538;2023-06-04T02:08:10;4.68;;;4.38;;
80576;SDS011;69937;52.420;10.538;2023-06-04T02:13:11;5.72;;;5.40;;
80576;SDS011;69937;52.420;10.538;2023-06-04T02:18:13;5.88;;;5.35;;
80576;SDS011;69937;52.420;10.538;2023-06-04T02:23:17;6.07;;;5.68;;
80576;SDS011;69937;52.420;10.538;2023-06-04T02:28:19;5.85;;;5.45;;
80576;SDS011;69937;52.420;10.538;2023-06-04T02:33:20;5.75;;;5.38;;
80576;SDS011;69937;52.420;10.538;2023-06-04T02:38:20;6.20;;;5.70;;
80576;SDS011;69937;52.420;10.538;2023-06-04T02:43:21;6.43;;;5.93;;
80576;SDS011;69937;52.420;10.538;2023-06-04T02:48:21;5.75;;;5.25;;
80576;SDS011;69937;52.420;10.538;2023-06-04T02:53:22;5.90;;;5.50;;
80576;SDS011;69937;52.420;10.538;2023-06-04T02:58:24;5.93;;;5.50;;
80576;SDS011;69937;52.420;10.538;2023-06-04T03:03:25;6.65;;;6.15;;
80576;SDS011;69937;52.420;10.538;2023-06-04T03:08:26;6.68;;;6.07;;
80576;SDS011;69937;52.420;10.538;2023-06-04T03:13:27;6.50;;;6.10;;
80576;SDS011;69937;52.420;10.538;2023-06-04T03:18:28;3.45;;;3.25;;
80576;SDS011;69937;52.420;10.538;2023-06-04T03:23:28;6.03;;;5.63;;
80576;SDS011;69937;52.420;10.538;2023-06-04T03:28:29;6.47;;;5.88;;
80576;SDS011;69937;52.420;10.538;2023-06-04T03:33:31;6.43;;;6.03;;
80576;SDS011;69937;52.420;10.538;2023-06-04T03:38:31;7.10;;;5.53;;
80576;SDS011;69937;52.420;10.538;2023-06-04T03:43:32;7.22;;;6.72;;
80576;SDS011;69937;52.420;10.538;2023-06-04T03:48:32;7.05;;;6.45;;
80576;SDS011;69937;52.420;10.538;2023-06-04T03:53:33;6.88;;;6.13;;
80576;SDS011;69937;52.420;10.538;2023-06-04T03:58:34;6.07;;;5.68;;
80576;SDS011;69937;52.420;10.538;2023-06-04T04:03:36;6.40;;;6.00;;
80576;SDS011;69937;52.420;10.538;2023-06-04T04:08:37;6.50;;;6.10;;
80576;SDS011;69937;52.420;10.538;2023-06-04T04:13:42;3.67;;;3.38;;
80576;SDS011;69937;52.420;10.538;2023-06-04T04:18:44;7.65;;;7.07;;
80576;SDS011;69937;52.420;10.538;2023-06-04T04:23:45;3.95;;;3.65;;
80576;SDS011;69937;52.420;10.538;2023-06-04T04:28:46;7.13;;;6.72;;
80576;SDS011;69937;52.420;10.538;2023-06-04T04:33:46;9.85;;;6.28;;
80576;SDS011;69937;52.420;10.538;2023-06-04T04:38:47;6.25;;;5.85;;
80576;SDS011;69937;52.420;10.538;2023-06-04T04:43:54;6.95;;;5.38;;
80576;SDS011;69937;52.420;10.538;2023-06-04T04:49:02;6.07;;;5.65;;
80576;SDS011;69937;52.420;10.538;2023-06-04T04:54:02;5.22;;;4.88;;
80576;SDS011;69937;52.420;10.538;2023-06-04T04:59:03;6.47;;;6.07;;
80576;SDS011;69937;52.420;10.538;2023-06-04T05:04:03;5.22;;;4.82;;
80576;SDS011;69937;52.420;10.538;2023-06-04T05:09:04;5.60;;;5.20;;
80576;SDS011;69937;52.420;10.538;2023-06-04T05:14:05;4.07;;;2.70;;
80576;SDS011;69937;52.420;10.538;2023-06-04T05:19:05;5.03;;;4.63;;
80576;SDS011;69937;52.420;10.538;2023-06-04T05:24:06;5.13;;;4.72;;
80576;SDS011;69937;52.420;10.538;2023-06-04T05:29:07;5.68;;;4.93;;
80576;SDS011;69937;52.420;10.538;2023-06-04T05:34:07;4.30;;;4.00;;
80576;SDS011;69937;52.420;10.538;2023-06-04T05:39:09;5.20;;;4.70;;
80576;SDS011;69937;52.420;10.538;2023-06-04T05:44:10;4.78;;;4.47;;
80576;SDS011;69937;52.420;10.538;2023-06-04T05:49:10;3.55;;;2.60;;
80576;SDS011;69937;52.420;10.538;2023-06-04T05:54:11;4.97;;;4.25;;
80576;SDS011;69937;52.420;10.538;2023-06-04T05:59:11;4.72;;;4.22;;
80576;SDS011;69937;52.420;10.538;2023-06-04T06:04:12;4.30;;;3.55;;
80576;SDS011;69937;52.420;10.538;2023-06-04T06:09:13;3.95;;;3.58;;
80576;SDS011;69937;52.420;10.538;2023-06-04T06:14:16;3.90;;;3.38;;
80576;SDS011;69937;52.420;10.538;2023-06-04T06:19:17;3.90;;;3.15;;
80576;SDS011;69937;52.420;10.538;2023-06-04T06:24:18;3.03;;;2.72;;
80576;SDS011;69937;52.420;10.538;2023-06-04T06:29:18;3.25;;;2.95;;
80576;SDS011;69937;52.420;10.538;2023-06-04T06:34:19;7.47;;;2.83;;
80576;SDS011;69937;52.420;10.538;2023-06-04T06:39:19;2.80;;;1.55;;
80576;SDS011;69937;52.420;10.538;2023-06-04T06:44:20;3.25;;;2.45;;
80576;SDS011;69937;52.420;10.538;2023-06-04T06:49:20;3.38;;;3.03;;
80576;SDS011;69937;52.420;10.538;2023-06-04T06:54:21;2.65;;;2.10;;
80576;SDS011;69937;52.420;10.538;2023-06-04T06:59:21;2.80;;;2.50;;
80576;SDS011;69937;52.420;10.538;2023-06-04T07:04:22;8.40;;;2.58;;
80576;SDS011;69937;52.420;10.538;2023-06-04T07:09:22;3.97;;;2.35;;
80576;SDS011;69937;52.420;10.538;2023-06-04T07:14:23;3.28;;;2.35;;
80576;SDS011;69937;52.420;10.538;2023-06-04T07:19:23;3.50;;;1.52;;
80576;SDS011;69937;52.420;10.538;2023-06-04T07:24:24;3.30;;;2.55;;
80576;SDS011;69937;52.420;10.538;2023-06-04T07:29:24;2.97;;;2.15;;
80576;SDS011;69937;52.420;10.538;2023-06-04T07:34:25;2.40;;;1.90;;
80576;SDS011;69937;52.420;10.538;2023-06-04T07:39:25;3.00;;;1.67;;
80576;SDS011;69937;52.420;10.538;2023-06-04T07:44:26;2.28;;;1.63;;
80576;SDS011;69937;52.420;10.538;2023-06-04T07:49:26;2.80;;;1.13;;
80576;SDS011;69937;52.420;10.538;2023-06-04T07:54:27;3.13;;;1.50;;
80576;SDS011;69937;52.420;10.538;2023-06-04T07:59:27;5.68;;;1.98;;
80576;SDS011;69937;52.420;10.538;2023-06-04T08:04:29;1.95;;;1.50;;
80576;SDS011;69937;52.420;10.538;2023-06-04T08:09:30;2.67;;;1.52;;
80576;SDS011;69937;52.420;10.538;2023-06-04T08:14:30;2.50;;;1.67;;
80576;SDS011;69937;52.420;10.538;2023-06-04T08:19:31;2.08;;;1.02;;
80576;SDS011;69937;52.420;10.538;2023-06-04T08:24:32;2.88;;;1.35;;
80576;SDS011;69937;52.420;10.538;2023-06-04T08:29:32;3.10;;;1.10;;
80576;SDS011;69937;52.420;10.538;2023-06-04T08:34:33;2.63;;;1.50;;
80576;SDS011;69937;52.420;10.538;2023-06-04T08:39:34;3.80;;;1.23;;
80576;SDS011;69937;52.420;10.538;2023-06-04T08:44:34;3.85;;;1.30;;
80576;SDS011;69937;52.420;10.538;2023-06-04T08:49:35;2.85;;;1.40;;
80576;SDS011;69937;52.420;10.538;2023-06-04T08:54:36;1.70;;;0.93;;
80576;SDS011;69937;52.420;10.538;2023-06-04T08:59:37;5.07;;;1.08;;
80576;SDS011;69937;52.420;10.538;2023-06-04T09:04:39;2.63;;;0.85;;
80576;SDS011;69937;52.420;10.538;2023-06-04T09:09:40;1.50;;;0.80;;
80576;SDS011;69937;52.420;10.538;2023-06-04T09:14:45;3.75;;;0.90;;
80576;SDS011;69937;52.420;10.538;2023-06-04T09:19:48;1.60;;;0.80;;
80576;SDS011;69937;52.420;10.538;2023-06-04T09:24:49;2.58;;;1.10;;
80576;SDS011;69937;52.420;10.538;2023-06-04T09:29:57;3.53;;;0.80;;
80576;SDS011;69937;52.420;10.538;2023-06-04T09:35:12;1.85;;;0.80;;
80576;SDS011;69937;52.420;10.538;2023-06-04T09:40:17;2.75;;;1.00;;
80576;SDS011;69937;52.420;10.538;2023-06-04T09:45:28;2.22;;;0.90;;
80576;SDS011;69937;52.420;10.538;2023-06-04T09:50:32;2.42;;;0.77;;
80576;SDS011;69937;52.420;10.538;2023-06-04T09:55:34;4.13;;;0.68;;
80576;SDS011;69937;52.420;10.538;2023-06-04T10:05:38;1.52;;;0.70;;
80576;SDS011;69937;52.420;10.538;2023-06-04T10:10:39;2.10;;;0.47;;
80576;SDS011;69937;52.420;10.538;2023-06-04T10:15:41;1.98;;;0.73;;
80576;SDS011;69937;52.420;10.538;2023-06-04T10:20:42;1.95;;;0.50;;
80576;SDS011;69937;52.420;10.538;2023-06-04T10:25:42;2.08;;;0.77;;
80576;SDS011;69937;52.420;10.538;2023-06-04T10:30:44;1.65;;;1.00;;
80576;SDS011;69937;52.420;10.538;2023-06-04T10:35:45;5.18;;;0.65;;
80576;SDS011;69937;52.420;10.538;2023-06-04T10:40:46;4.43;;;0.73;;
80576;SDS011;69937;52.420;10.538;2023-06-04T10:45:47;2.10;;;0.80;;
80576;SDS011;69937;52.420;10.538;2023-06-04T10:50:49;2.50;;;0.50;;
80576;SDS011;69937;52.420;10.538;2023-06-04T10:55:51;1.92;;;0.50;;
80576;SDS011;69937;52.420;10.538;2023-06-04T11:00:51;1.20;;;0.52;;
80576;SDS011;69937;52.420;10.538;2023-06-04T11:05:52;1.58;;;0.60;;
80576;SDS011;69937;52.420;10.538;2023-06-04T11:10:52;1.65;;;0.50;;
80576;SDS011;69937;52.420;10.538;2023-06-04T11:15:53;2.17;;;0.52;;
80576;SDS011;69937;52.420;10.538;2023-06-04T11:21:00;1.55;;;0.50;;
80576;SDS011;69937;52.420;10.538;2023-06-04T11:26:01;1.35;;;0.50;;
80576;SDS011;69937;52.420;10.538;2023-06-04T11:31:02;1.60;;;0.50;;
80576;SDS011;69937;52.420;10.538;2023-06-04T11:36:03;1.80;;;0.50;;
80576;SDS011;69937;52.420;10.538;2023-06-04T11:41:04;2.65;;;0.50;;
80576;SDS011;69937;52.420;10.538;2023-06-04T11:46:06;2.67;;;0.63;;
80576;SDS011;69937;52.420;10.538;2023-06-04T11:51:07;2.13;;;0.32;;
80576;SDS011;69937;52.420;10.538;2023-06-04T11:56:09;2.90;;;0.63;;
80576;SDS011;69937;52.420;10.538;2023-06-04T12:01:09;4.22;;;0.63;;
80576;SDS011;69937;52.420;10.538;2023-06-04T12:11:27;5.57;;;0.60;;
80576;SDS011;69937;52.420;10.538;2023-06-04T12:16:31;1.42;;;0.65;;
80576;SDS011;69937;52.420;10.538;2023-06-04T12:21:32;3.17;;;0.57;;
80576;SDS011;69937;52.420;10.538;2023-06-04T12:26:32;4.28;;;0.50;;
80576;SDS011;69937;52.420;10.538;2023-06-04T12:31:38;1.33;;;0.60;;
80576;SDS011;69937;52.420;10.538;2023-06-04T12:36:42;1.88;;;0.57;;
80576;SDS011;69937;52.420;10.538;2023-06-04T12:41:46;2.28;;;0.60;;
80576;SDS011;69937;52.420;10.538;2023-06-04T12:46:46;4.28;;;0.82;;
80576;SDS011;69937;52.420;10.538;2023-06-04T12:51:47;1.55;;;0.50;;
80576;SDS011;69937;52.420;10.538;2023-06-04T12:56:48;1.92;;;0.60;;
80576;SDS011;69937;52.420;10.538;2023-06-04T13:01:49;2.38;;;0.50;;
80576;SDS011;69937;52.420;10.538;2023-06-04T13:06:50;2.05;;;0.68;;
80576;SDS011;69937;52.420;10.538;2023-06-04T13:11:53;1.17;;;0.47;;
80576;SDS011;69937;52.420;10.538;2023-06-04T13:16:53;3.00;;;0.60;;
80576;SDS011;69937;52.420;10.538;2023-06-04T13:21:54;5.47;;;0.50;;
80576;SDS011;69937;52.420;10.538;2023-06-04T13:26:54;2.05;;;0.82;;
80576;SDS011;69937;52.420;10.538;2023-06-04T13:31:55;2.78;;;0.70;;
80576;SDS011;69937;52.420;10.538;2023-06-04T13:36:56;2.42;;;0.80;;
80576;SDS011;69937;52.420;10.538;2023-06-04T13:41:56;1.98;;;0.70;;
80576;SDS011;69937;52.420;10.538;2023-06-04T13:46:58;2.10;;;0.93;;
80576;SDS011;69937;52.420;10.538;2023-06-04T13:51:59;1.58;;;0.60;;
80576;SDS011;69937;52.420;10.538;2023-06-04T13:57:02;2.53;;;0.70;;
80576;SDS011;69937;52.420;10.538;2023-06-04T14:02:04;4.65;;;0.60;;
80576;SDS011;69937;52.420;10.538;2023-06-04T14:07:05;1.92;;;0.70;;
80576;SDS011;69937;52.420;10.538;2023-06-04T14:12:07;1.33;;;0.60;;
80576;SDS011;69937;52.420;10.538;2023-06-04T14:17:08;1.98;;;0.80;;
80576;SDS011;69937;52.420;10.538;2023-06-04T14:22:09;2.90;;;0.80;;
80576;SDS011;69937;52.420;10.538;2023-06-04T14:27:11;2.42;;;0.73;;
80576;SDS011;69937;52.420;10.538;2023-06-04T14:32:13;1.58;;;0.93;;
80576;SDS011;69937;52.420;10.538;2023-06-04T14:37:13;2.33;;;0.57;;
80576;SDS011;69937;52.420;10.538;2023-06-04T14:42:14;1.95;;;0.60;;
80576;SDS011;69937;52.420;10.538;2023-06-04T14:47:15;2.00;;;0.90;;
80576;SDS011;69937;52.420;10.538;2023-06-04T14:52:15;2.33;;;1.10;;
80576;SDS011;69937;52.420;10.538;2023-06-04T14:57:16;1.90;;;0.75;;
80576;SDS011;69937;52.420;10.538;2023-06-04T15:02:18;3.83;;;0.90;;
80576;SDS011;69937;52.420;10.538;2023-06-04T15:07:21;2.40;;;0.80;;
80576;SDS011;69937;52.420;10.538;2023-06-04T15:12:22;1.42;;;0.60;;
80576;SDS011;69937;52.420;10.538;2023-06-04T15:17:22;2.05;;;0.60;;
80576;SDS011;69937;52.420;10.538;2023-06-04T15:22:23;4.15;;;0.90;;
80576;SDS011;69937;52.420;10.538;2023-06-04T15:27:25;1.50;;;0.52;;
80576;SDS011;69937;52.420;10.538;2023-06-04T15:32:25;2.83;;;1.10;;
80576;SDS011;69937;52.420;10.538;2023-06-04T15:37:26;1.60;;;0.65;;
80576;SDS011;69937;52.420;10.538;2023-06-04T15:42:26;1.67;;;0.82;;
80576;SDS011;69937;52.420;10.538;2023-06-04T15:47:27;2.30;;;0.80;;
80576;SDS011;69937;52.420;10.538;2023-06-04T15:52:27;2.35;;;0.98;;
80576;SDS011;69937;52.420;10.538;2023-06-04T15:57:28;1.45;;;0.70;;
80576;SDS011;69937;52.420;10.538;2023-06-04T16:02:28;2.28;;;0.73;;
80576;SDS011;69937;52.420;10.538;2023-06-04T16:07:29;1.27;;;0.73;;
80576;SDS011;69937;52.420;10.538;2023-06-04T16:12:30;1.80;;;0.85;;
80576;SDS011;69937;52.420;10.538;2023-06-04T16:17:30;5.18;;;1.05;;
80576;SDS011;69937;52.420;10.538;2023-06-04T16:22:31;1.17;;;0.70;;
80576;SDS011;69937;52.420;10.538;2023-06-04T16:27:31;4.00;;;0.90;;
80576;SDS011;69937;52.420;10.538;2023-06-04T16:32:33;1.48;;;0.60;;
80576;SDS011;69937;52.420;10.538;2023-06-04T16:37:33;1.63;;;0.68;;
80576;SDS011;69937;52.420;10.538;2023-06-04T16:42:34;2.00;;;0.90;;
80576;SDS011;69937;52.420;10.538;2023-06-04T16:47:35;1.90;;;0.88;;
80576;SDS011;69937;52.420;10.538;2023-06-04T16:52:36;2.15;;;1.00;;
80576;SDS011;69937;52.420;10.538;2023-06-04T16:57:37;2.08;;;0.77;;
80576;SDS011;69937;52.420;10.538;2023-06-04T17:02:37;2.38;;;0.68;;
80576;SDS011;69937;52.420;10.538;2023-06-04T17:07:38;2.50;;;0.80;;
80576;SDS011;69937;52.420;10.538;2023-06-04T17:12:38;2.22;;;0.70;;
80576;SDS011;69937;52.420;10.538;2023-06-04T17:17:39;2.65;;;0.80;;
80576;SDS011;69937;52.420;10.538;2023-06-04T17:22:39;2.25;;;0.70;;
80576;SDS011;69937;52.420;10.538;2023-06-04T17:27:40;1.83;;;0.98;;
80576;SDS011;69937;52.420;10.538;2023-06-04T17:32:40;2.10;;;0.63;;
80576;SDS011;69937;52.420;10.538;2023-06-04T17:37:41;1.63;;;1.00;;
80576;SDS011;69937;52.420;10.538;2023-06-04T17:42:42;2.10;;;0.88;;
80576;SDS011;69937;52.420;10.538;2023-06-04T17:47:46;2.38;;;1.10;;
80576;SDS011;69937;52.420;10.538;2023-06-04T17:52:46;2.78;;;0.93;;
80576;SDS011;69937;52.420;10.538;2023-06-04T17:57:47;1.90;;;0.80;;
80576;SDS011;69937;52.420;10.538;2023-06-04T18:02:47;1.50;;;0.90;;
80576;SDS011;69937;52.420;10.538;2023-06-04T18:07:48;1.85;;;0.93;;
80576;SDS011;69937;52.420;10.538;2023-06-04T18:12:49;2.78;;;1.20;;
80576;SDS011;69937;52.420;10.538;2023-06-04T18:17:50;4.65;;;1.20;;
80576;SDS011;69937;52.420;10.538;2023-06-04T18:28:37;2.10;;;1.05;;
80576;SDS011;69937;52.420;10.538;2023-06-04T18:33:48;2.13;;;1.20;;
80576;SDS011;69937;52.420;10.538;2023-06-04T18:38:50;1.65;;;1.05;;
80576;SDS011;69937;52.420;10.538;2023-06-04T18:43:50;1.70;;;1.05;;
80576;SDS011;69937;52.420;10.538;2023-06-04T18:48:51;3.08;;;1.38;;
80576;SDS011;69937;52.420;10.538;2023-06-04T18:53:53;1.77;;;1.10;;
80576;SDS011;69937;52.420;10.538;2023-06-04T18:58:56;2.45;;;1.08;;
80576;SDS011;69937;52.420;10.538;2023-06-04T19:03:57;2.30;;;1.27;;
80576;SDS011;69937;52.420;10.538;2023-06-04T19:08:58;2.92;;;1.27;;
80576;SDS011;69937;52.420;10.538;2023-06-04T19:13:58;2.13;;;1.35;;
80576;SDS011;69937;52.420;10.538;2023-06-04T19:18:59;2.03;;;1.23;;
80576;SDS011;69937;52.420;10.538;2023-06-04T19:24:00;2.45;;;1.40;;
80576;SDS011;69937;52.420;10.538;2023-06-04T19:29:00;7.97;;;1.50;;
80576;SDS011;69937;52.420;10.538;2023-06-04T19:34:01;2.95;;;1.30;;
80576;SDS011;69937;52.420;10.538;2023-06-04T19:39:01;2.25;;;1.13;;
80576;SDS011;69937;52.420;10.538;2023-06-04T19:44:02;3.97;;;1.08;;
80576;SDS011;69937;52.420;10.538;2023-06-04T19:49:02;2.42;;;1.00;;
80576;SDS011;69937;52.420;10.538;2023-06-04T19:54:03;2.30;;;1.25;;
80576;SDS011;69937;52.420;10.538;2023-06-04T19:59:03;1.90;;;1.40;;
80576;SDS011;69937;52.420;10.538;2023-06-04T20:04:05;3.38;;;1.92;;
80576;SDS011;69937;52.420;10.538;2023-06-04T20:09:05;3.75;;;1.48;;
80576;SDS011;69937;52.420;10.538;2023-06-04T20:14:07;8.98;;;1.40;;
80576;SDS011;69937;52.420;10.538;2023-06-04T20:19:08;9.13;;;1.83;;
80576;SDS011;69937;52.420;10.538;2023-06-04T20:24:08;4.55;;;1.88;;
80576;SDS011;69937;52.420;10.538;2023-06-04T20:29:09;8.80;;;1.80;;
80576;SDS011;69937;52.420;10.538;2023-06-04T20:34:09;5.68;;;1.77;;
80576;SDS011;69937;52.420;10.538;2023-06-04T20:39:10;6.38;;;2.22;;
80576;SDS011;69937;52.420;10.538;2023-06-04T20:44:11;4.80;;;1.35;;
80576;SDS011;69937;52.420;10.538;2023-06-04T20:49:11;3.10;;;1.77;;
80576;SDS011;69937;52.420;10.538;2023-06-04T20:54:12;3.45;;;1.70;;
80576;SDS011;69937;52.420;10.538;2023-06-04T20:59:13;3.83;;;1.77;;
80576;SDS011;69937;52.420;10.538;2023-06-04T21:04:14;2.42;;;1.77;;
80576;SDS011;69937;52.420;10.538;2023-06-04T21:09:15;3.42;;;1.83;;
80576;SDS011;69937;52.420;10.538;2023-06-04T21:14:16;3.42;;;1.80;;
80576;SDS011;69937;52.420;10.538;2023-06-04T21:19:16;3.42;;;1.90;;
80576;SDS011;69937;52.420;10.538;2023-06-04T21:24:17;2.50;;;1.80;;
80576;SDS011;69937;52.420;10.538;2023-06-04T21:29:17;3.65;;;2.00;;
80576;SDS011;69937;52.420;10.538;2023-06-04T21:34:18;2.03;;;1.83;;
80576;SDS011;69937;52.420;10.538;2023-06-04T21:39:18;3.05;;;2.20;;
80576;SDS011;69937;52.420;10.538;2023-06-04T21:44:19;4.57;;;2.22;;
80576;SDS011;69937;52.420;10.538;2023-06-04T21:49:19;4.80;;;2.00;;
80576;SDS011;69937;52.420;10.538;2023-06-04T21:54:20;3.78;;;2.22;;
80576;SDS011;69937;52.420;10.538;2023-06-04T21:59:20;2.97;;;2.38;;
80576;SDS011;69937;52.420;10.538;2023-06-04T22:04:21;2.90;;;2.60;;
80576;SDS011;69937;52.420;10.538;2023-06-04T22:09:23;2.85;;;2.35;;
80576;SDS011;69937;52.420;10.538;2023-06-04T22:14:23;3.05;;;2.28;;
80576;SDS011;69937;52.420;10.538;2023-06-04T22:19:24;2.80;;;2.22;;
80576;SDS011;69937;52.420;10.538;2023-06-04T22:24:24;5.38;;;2.50;;
80576;SDS011;69937;52.420;10.538;2023-06-04T22:29:25;2.67;;;2.33;;
80576;SDS011;69937;52.420;10.538;2023-06-04T22:34:25;2.90;;;2.28;;
80576;SDS011;69937;52.420;10.538;2023-06-04T22:39:26;5.40;;;2.88;;
80576;SDS011;69937;52.420;10.538;2023-06-04T22:44:27;4.80;;;2.85;;
80576;SDS011;69937;52.420;10.538;2023-06-04T22:49:27;2.83;;;2.53;;
80576;SDS011;69937;52.420;10.538;2023-06-04T22:54:28;2.75;;;2.38;;
80576;SDS011;69937;52.420;10.538;2023-06-04T22:59:28;4.63;;;2.58;;
80576;SDS011;69937;52.420;10.538;2023-06-04T23:04:29;4.95;;;2.60;;
80576;SDS011;69937;52.420;10.538;2023-06-04T23:09:30;5.57;;;3.30;;
80576;SDS011;69937;52.420;10.538;2023-06-04T23:14:30;3.45;;;3.03;;
80576;SDS011;69937;52.420;10.538;2023-06-04T23:19:31;3.13;;;2.55;;
80576;SDS011;69937;52.420;10.538;2023-06-04T23:24:31;3.25;;;2.03;;
80576;SDS011;69937;52.420;10.538;2023-06-04T23:29:33;4.55;;;2.90;;
80576;SDS011;69937;52.420;10.538;2023-06-04T23:34:33;3.30;;;2.97;;
80576;SDS011;69937;52.420;10.538;2023-06-04T23:39:34;4.60;;;3.20;;
80576;SDS011;69937;52.420;10.538;2023-06-04T23:44:34;4.82;;;3.33;;
80576;SDS011;69937;52.420;10.538;2023-06-04T23:49:35;4.45;;;3.22;;
80576;SDS011;69937;52.420;10.538;2023-06-04T23:54:35;3.83;;;2.85;;
80576;SDS011;69937;52.420;10.538;2023-06-04T23:59:36;3.75;;;3.17;;
